createdAt,value
2018-06-04T00:00:02.973Z,12.6
2018-06-04T00:15:02.287Z,12.6
2018-06-04T00:30:02.679Z,12.6
2018-06-04T00:45:02.973Z,12.6
2018-06-04T01:00:02.287Z,12.6
2018-06-04T01:15:02.602Z,12.6
2018-06-04T01:30:03.015Z,12.6
2018-06-04T01:45:02.411Z,12.5
2018-06-04T02:00:02.710Z,12.5
2018-06-04T02:15:03.064Z,12.5
2018-06-04T02:30:02.483Z,12.4
2018-06-04T02:45:02.897Z,12.4
2018-06-04T03:00:03.451Z,12.4
2018-06-04T03:15:02.864Z,12.4
2018-06-04T03:30:03.302Z,12.4
2018-06-04T03:45:02.675Z,12.4
2018-06-04T04:00:03.094Z,12.4
2018-06-04T04:15:02.543Z,12.3
2018-06-04T04:30:02.961Z,12.3
2018-06-04T04:45:02.317Z,12.3
2018-06-04T05:00:02.691Z,12.3
2018-06-04T05:15:03.019Z,12.3
2018-06-04T05:30:02.575Z,12.3
2018-06-04T05:45:02.970Z,12.3
2018-06-04T06:00:02.537Z,12.3
2018-06-04T06:15:02.868Z,12.3
2018-06-04T06:30:02.596Z,12.4
2018-06-04T06:45:03.033Z,12.4
2018-06-04T07:00:02.810Z,12.4
2018-06-04T07:15:03.152Z,12.5
2018-06-04T07:30:02.624Z,12.5
2018-06-04T07:45:02.971Z,12.6
2018-06-04T08:00:02.366Z,12.6
2018-06-04T08:15:02.749Z,12.7
2018-06-04T08:30:03.199Z,12.8
2018-06-04T08:45:02.689Z,12.8
2018-06-04T09:00:03.005Z,12.9
2018-06-04T09:15:02.464Z,12.9
2018-06-04T09:30:02.943Z,13
2018-06-04T09:45:03.319Z,13.1
2018-06-04T10:00:02.660Z,13.1
2018-06-04T10:15:03.125Z,13.2
2018-06-04T10:30:02.598Z,13.3
2018-06-04T10:45:03.027Z,13.4
2018-06-04T11:00:02.436Z,13.4
2018-06-04T11:15:02.864Z,13.6
2018-06-04T11:30:02.397Z,13.6
2018-06-04T11:45:02.807Z,13.7
2018-06-04T12:00:03.110Z,13.8
2018-06-04T12:15:02.437Z,13.9
2018-06-04T12:30:02.877Z,13.9
2018-06-04T12:45:03.208Z,14
2018-06-04T13:00:02.484Z,14
2018-06-04T13:15:02.856Z,14.1
2018-06-04T13:30:03.310Z,14.1
2018-06-04T13:45:02.642Z,14.1
2018-06-04T14:00:03.100Z,14.2
2018-06-04T14:15:02.525Z,14.2
2018-06-04T14:30:02.936Z,14.2
2018-06-04T14:45:03.382Z,14.2
2018-06-04T15:00:02.701Z,14.2
2018-06-04T15:15:03.037Z,14.1
2018-06-04T15:30:02.475Z,14.1
2018-06-04T15:45:02.777Z,14.1
2018-06-04T16:00:03.103Z,14.1
2018-06-04T16:15:02.434Z,14
2018-06-04T16:30:02.858Z,14
2018-06-04T16:45:03.211Z,13.9
2018-06-04T17:00:02.691Z,13.9
2018-06-04T17:15:03.014Z,13.9
2018-06-04T17:30:02.395Z,13.9
2018-06-04T17:45:02.774Z,13.8
2018-06-04T18:00:03.109Z,13.8
2018-06-04T18:15:02.468Z,13.8
2018-06-04T18:30:02.916Z,13.8
2018-06-04T18:45:03.432Z,13.7
2018-06-04T19:00:02.532Z,13.6
2018-06-04T19:15:02.965Z,13.6
2018-06-04T19:30:02.462Z,13.6
2018-06-04T19:45:02.797Z,13.5
2018-06-04T20:00:03.108Z,13.5
2018-06-04T20:15:02.375Z,13.4
2018-06-04T20:30:02.763Z,13.4
2018-06-04T20:45:03.089Z,13.4
2018-06-04T21:00:02.407Z,13.4
2018-06-04T21:15:02.696Z,13.3
2018-06-04T21:30:03.076Z,13.3
2018-06-04T21:45:02.465Z,13.3
2018-06-04T22:00:03.000Z,13.2
2018-06-04T22:15:02.525Z,13.2
2018-06-04T22:30:02.969Z,13.2
2018-06-04T22:45:02.351Z,13.2
2018-06-04T23:00:02.831Z,13.2
2018-06-04T23:15:03.192Z,13.2
2018-06-04T23:30:02.631Z,13.2
2018-06-04T23:45:03.041Z,13.1
